Terminal Aerodrome Forecast
Issued by NWS

Home | Current Version | Previous Version | Text Only | Print | Product List | Glossary On
Versions: 1 2 3 4 5 6 7 8 9 10 11 12 13 14
000
FTUS41 KLWX 072333
TAFMTN
TAF
KMTN 072333Z 0800/0824 18008KT P6SM FEW035
     FM080800 21004KT P6SM SCT090
     FM080900 22004KT P6SM BKN090
     FM081600 21006KT P6SM -SHRA BKN060
     FM081900 20006KT P6SM -SHRA VCTS BKN040CB
      AMD NOT SKED 0802/0812=

USA.gov is the U.S. government's official web portal to all federal, state and local government web resources and services.